createdAt,value
2018-07-11T00:00:02.774Z,94.50
2018-07-11T00:03:06.026Z,94.47
2018-07-11T00:06:09.102Z,94.79
2018-07-11T00:09:12.221Z,94.53
2018-07-11T00:12:15.307Z,94.71
2018-07-11T00:15:18.568Z,94.54
2018-07-11T00:18:21.852Z,94.92
2018-07-11T00:21:25.226Z,95.50
2018-07-11T00:24:28.356Z,95.20
2018-07-11T00:27:31.715Z,95.22
2018-07-11T00:30:34.846Z,95.76
2018-07-11T00:33:38.018Z,95.90
2018-07-11T00:36:41.056Z,95.79
2018-07-11T00:39:44.229Z,95.48
2018-07-11T00:42:47.512Z,96.12
2018-07-11T00:45:51.082Z,95.91
2018-07-11T00:48:54.363Z,96.04
2018-07-11T00:51:57.580Z,95.90
2018-07-11T00:55:00.613Z,96.03
2018-07-11T00:58:43.498Z,95.19
2018-07-11T01:01:47.081Z,94.55
2018-07-11T01:04:50.229Z,94.68
2018-07-11T01:07:53.455Z,94.96
2018-07-11T01:10:59.332Z,94.91
2018-07-11T01:14:02.540Z,94.62
2018-07-11T01:17:10.222Z,94.88
2018-07-11T01:20:13.429Z,94.16
2018-07-11T01:23:16.643Z,94.43
2018-07-11T01:26:24.892Z,94.09
2018-07-11T01:29:29.079Z,94.38
2018-07-11T01:32:32.289Z,94.01
2018-07-11T01:35:36.363Z,94.51
2018-07-11T01:38:39.550Z,93.77
2018-07-11T01:41:42.836Z,93.96
2018-07-11T01:44:47.208Z,94.37
2018-07-11T01:47:51.430Z,94.28
2018-07-11T01:50:54.678Z,94.36
2018-07-11T01:53:57.825Z,94.29
2018-07-11T01:57:02.937Z,93.96
2018-07-11T02:00:07.121Z,94.32
2018-07-11T02:03:10.286Z,94.32
2018-07-11T02:06:15.382Z,94.04
2018-07-11T02:09:18.683Z,93.55
2018-07-11T02:12:21.749Z,93.34
2018-07-11T02:15:25.881Z,93.06
2018-07-11T02:18:29.759Z,92.94
2018-07-11T02:21:34.861Z,92.45
2018-07-11T02:24:37.904Z,92.31
2018-07-11T02:27:42.047Z,92.41
2018-07-11T02:30:47.288Z,92.07
2018-07-11T02:33:50.341Z,92.56
2018-07-11T02:36:53.499Z,92.61
2018-07-11T02:39:56.818Z,92.79
2018-07-11T02:43:00.011Z,92.46
2018-07-11T02:46:03.065Z,92.61
2018-07-11T02:49:06.208Z,92.98
2018-07-11T02:52:09.248Z,92.84
2018-07-11T02:55:12.419Z,92.92
2018-07-11T02:58:15.601Z,92.30
2018-07-11T03:01:19.799Z,92.52
2018-07-11T03:04:24.263Z,92.52
2018-07-11T03:13:28.284Z,92.05
2018-07-11T03:16:31.694Z,92.22
2018-07-11T03:19:34.987Z,91.45
2018-07-11T03:22:39.399Z,91.42
2018-07-11T03:25:42.699Z,91.27
2018-07-11T03:28:45.866Z,91.95
2018-07-11T03:31:49.192Z,92.51
2018-07-11T03:34:53.532Z,93.33
2018-07-11T03:37:56.699Z,93.93
2018-07-11T03:41:00.292Z,93.74
2018-07-11T03:44:03.743Z,93.99
2018-07-11T03:47:07.119Z,93.99
2018-07-11T03:50:10.426Z,93.95
2018-07-11T03:53:13.803Z,93.44
2018-07-11T03:56:16.867Z,93.17
2018-07-11T03:59:20.177Z,92.71
2018-07-11T04:02:23.444Z,93.40
2018-07-11T04:05:26.835Z,93.50
2018-07-11T04:08:30.179Z,93.64
2018-07-11T04:11:33.474Z,93.03
2018-07-11T04:14:37.623Z,92.43
2018-07-11T04:17:41.744Z,91.65
2018-07-11T04:20:44.921Z,90.50
2018-07-11T04:23:48.513Z,89.89
2018-07-11T04:26:52.109Z,90.92
2018-07-11T04:29:55.232Z,91.16
2018-07-11T04:32:58.472Z,90.61
2018-07-11T04:36:01.650Z,90.69
2018-07-11T04:39:04.922Z,91.06
2018-07-11T04:42:08.443Z,91.38
2018-07-11T04:45:11.868Z,91.21
2018-07-11T04:48:15.328Z,89.83
2018-07-11T04:51:18.773Z,88.34
2018-07-11T04:54:22.158Z,85.06
2018-07-11T04:57:26.601Z,84.44
2018-07-11T05:00:31.937Z,83.45
2018-07-11T05:03:35.102Z,82.81
2018-07-11T05:06:38.428Z,75.07
2018-07-11T05:09:41.842Z,78.41
2018-07-11T05:12:45.124Z,79.99
2018-07-11T05:15:48.338Z,82.36
2018-07-11T05:18:51.534Z,83.96
2018-07-11T05:21:54.849Z,84.92
2018-07-11T05:24:59.350Z,82.34
2018-07-11T05:28:02.672Z,67.16
2018-07-11T05:31:06.826Z,65.88
2018-07-11T05:34:09.918Z,68.37
2018-07-11T05:37:14.068Z,58.90
2018-07-11T05:40:17.336Z,66.67
2018-07-11T05:43:22.416Z,63.00
2018-07-11T05:46:26.562Z,62.56
2018-07-11T05:49:29.987Z,57.94
2018-07-11T05:52:33.281Z,58.65
2018-07-11T05:55:36.680Z,60.94
2018-07-11T05:58:41.129Z,69.34
2018-07-11T06:01:44.473Z,67.40
2018-07-11T06:04:47.578Z,60.48
2018-07-11T06:07:52.708Z,52.56
2018-07-11T06:10:56.766Z,55.26
2018-07-11T06:14:01.978Z,59.53
2018-07-11T06:17:05.227Z,63.21
2018-07-11T06:20:08.730Z,62.64
2018-07-11T06:23:12.039Z,71.41
2018-07-11T06:26:17.391Z,75.21
2018-07-11T06:29:20.749Z,79.40
2018-07-11T06:32:24.078Z,78.79
2018-07-11T06:35:27.437Z,77.63
2018-07-11T06:38:30.396Z,75.57
2018-07-11T06:41:34.588Z,76.82
2018-07-11T06:44:37.849Z,78.78
2018-07-11T06:47:40.914Z,81.02
2018-07-11T06:50:46.328Z,76.42
2018-07-11T06:53:50.765Z,77.45
2018-07-11T06:56:54.002Z,80.71
2018-07-11T06:59:57.274Z,83.02
2018-07-11T07:03:01.592Z,82.94
2018-07-11T07:06:09.637Z,82.58
2018-07-11T07:09:13.773Z,82.66
2018-07-11T07:12:16.903Z,80.28
2018-07-11T07:15:23.555Z,80.94
2018-07-11T07:18:26.755Z,79.77
2018-07-11T07:21:34.469Z,77.50
2018-07-11T07:24:37.523Z,70.56
2018-07-11T07:27:40.733Z,69.97
2018-07-11T07:30:45.204Z,73.56
2018-07-11T07:33:48.691Z,75.60
2018-07-11T07:36:52.040Z,78.73
2018-07-11T07:40:05.926Z,79.58
2018-07-11T07:43:09.002Z,80.84
2018-07-11T07:46:13.274Z,80.94
2018-07-11T07:49:16.577Z,80.67
2018-07-11T07:52:20.774Z,80.34
2018-07-11T07:55:27.736Z,77.35
2018-07-11T07:58:31.005Z,74.62
2018-07-11T08:01:36.484Z,74.00
2018-07-11T08:04:40.978Z,72.73
2018-07-11T08:07:47.743Z,73.07
2018-07-11T08:10:51.114Z,72.22
2018-07-11T08:13:54.539Z,73.87
2018-07-11T08:16:58.994Z,73.49
2018-07-11T08:20:02.429Z,72.41
2018-07-11T08:23:18.181Z,70.13
2018-07-11T08:26:33.822Z,68.86
2018-07-11T08:30:20.435Z,67.44
2018-07-11T08:33:39.711Z,69.05
2018-07-11T08:41:02.335Z,69.24
2018-07-11T08:49:44.285Z,61.14
2018-07-11T08:53:02.393Z,54.25
2018-07-11T08:58:24.910Z,55.32
2018-07-11T09:01:39.165Z,52.01
2018-07-11T09:05:11.010Z,50.47
2018-07-11T09:08:32.855Z,57.06
2018-07-11T09:11:44.733Z,60.75
2018-07-11T09:20:34.417Z,64.36
2018-07-11T09:23:49.559Z,72.90
2018-07-11T09:26:52.706Z,74.73
2018-07-11T09:30:03.433Z,76.53
2018-07-11T09:33:06.470Z,77.08
2018-07-11T09:36:09.549Z,76.41
2018-07-11T09:39:12.632Z,77.18
2018-07-11T09:42:15.852Z,78.21
2018-07-11T09:45:19.159Z,78.81
2018-07-11T09:48:22.333Z,76.82
2018-07-11T09:51:25.385Z,77.57
2018-07-11T09:54:28.501Z,73.59
2018-07-11T09:57:33.252Z,72.60
2018-07-11T10:00:44.153Z,71.28
2018-07-11T10:03:47.602Z,69.58
2018-07-11T10:06:50.790Z,70.45
2018-07-11T10:09:54.290Z,71.13
2018-07-11T10:12:57.683Z,69.31
2018-07-11T10:16:00.725Z,71.10
2018-07-11T10:19:04.716Z,70.89
2018-07-11T10:22:07.878Z,70.64
2018-07-11T10:25:10.889Z,69.99
2018-07-11T10:28:17.080Z,67.63
2018-07-11T10:31:20.345Z,66.92
2018-07-11T10:34:23.687Z,64.62
2018-07-11T10:37:27.135Z,63.90
2018-07-11T10:40:30.322Z,65.03
2018-07-11T10:43:33.617Z,65.66
2018-07-11T10:46:36.801Z,65.99
2018-07-11T10:49:40.372Z,65.40
2018-07-11T10:52:43.500Z,65.88
2018-07-11T10:55:46.762Z,66.61
2018-07-11T10:58:49.821Z,67.67
2018-07-11T11:01:52.890Z,69.62
2018-07-11T11:04:56.167Z,69.20
2018-07-11T11:08:00.421Z,70.69
2018-07-11T11:11:03.599Z,71.03
2018-07-11T11:14:07.950Z,70.03
2018-07-11T11:17:11.427Z,69.71
2018-07-11T11:20:14.661Z,73.68
2018-07-11T11:23:18.212Z,76.64
2018-07-11T11:26:21.696Z,74.88
2018-07-11T11:29:24.967Z,74.31
2018-07-11T11:32:28.230Z,72.68
2018-07-11T11:35:31.505Z,68.96
2018-07-11T11:38:34.931Z,63.46
2018-07-11T11:41:38.417Z,56.09
2018-07-11T11:44:41.817Z,55.01
2018-07-11T11:47:44.905Z,52.45
2018-07-11T11:50:48.097Z,50.86
2018-07-11T11:53:51.351Z,52.48
2018-07-11T11:56:54.706Z,51.05
2018-07-11T11:59:58.081Z,49.06
2018-07-11T12:03:01.330Z,46.53
2018-07-11T12:06:04.787Z,44.25
2018-07-11T12:09:08.601Z,45.23
2018-07-11T12:12:11.741Z,42.87
2018-07-11T12:15:15.084Z,46.77
2018-07-11T12:18:18.350Z,47.24
2018-07-11T12:21:21.589Z,45.25
2018-07-11T12:24:24.867Z,48.51
2018-07-11T12:27:28.129Z,53.19
2018-07-11T12:30:31.672Z,57.50
2018-07-11T12:33:34.972Z,68.69
2018-07-11T12:36:38.365Z,71.48
2018-07-11T12:39:41.596Z,68.39
2018-07-11T12:42:45.221Z,69.55
2018-07-11T12:45:48.489Z,68.07
2018-07-11T12:48:57.463Z,67.99
2018-07-11T12:52:00.740Z,66.41
2018-07-11T12:55:03.860Z,68.32
2018-07-11T12:58:07.200Z,70.26
2018-07-11T13:01:10.460Z,70.37
2018-07-11T13:04:13.567Z,70.45
2018-07-11T13:07:16.696Z,68.40
2018-07-11T13:10:20.019Z,65.89
2018-07-11T13:13:23.107Z,64.11
2018-07-11T13:16:26.336Z,61.22
2018-07-11T13:19:29.527Z,62.87
2018-07-11T13:22:32.835Z,62.10
2018-07-11T13:25:36.247Z,60.71
2018-07-11T13:28:39.425Z,60.70
2018-07-11T13:31:42.961Z,59.62
2018-07-11T13:34:46.394Z,57.95
2018-07-11T13:37:49.608Z,57.21
2018-07-11T13:40:52.794Z,55.72
2018-07-11T13:43:56.216Z,51.11
2018-07-11T13:46:59.508Z,54.54
2018-07-11T13:50:02.827Z,53.47
2018-07-11T13:53:06.138Z,54.16
2018-07-11T13:56:09.394Z,54.87
2018-07-11T13:59:12.537Z,54.17
2018-07-11T14:02:15.901Z,54.15
2018-07-11T14:05:19.593Z,54.40
2018-07-11T14:08:22.952Z,54.98
2018-07-11T14:11:26.174Z,55.03
2018-07-11T14:14:29.466Z,53.95
2018-07-11T14:17:32.637Z,53.99
2018-07-11T14:20:36.035Z,53.34
2018-07-11T14:23:42.105Z,48.88
2018-07-11T14:26:45.563Z,46.16
2018-07-11T14:29:49.092Z,44.14
2018-07-11T14:32:55.635Z,45.33
2018-07-11T14:35:59.513Z,44.60
2018-07-11T14:39:04.221Z,44.50
2018-07-11T14:42:07.579Z,46.66
2018-07-11T14:45:10.823Z,46.83
2018-07-11T14:48:15.456Z,48.78
2018-07-11T14:51:18.747Z,48.59
2018-07-11T14:54:21.933Z,49.25
2018-07-11T14:57:25.347Z,49.55
2018-07-11T15:00:29.676Z,50.63
2018-07-11T15:03:32.959Z,51.39
2018-07-11T15:06:36.073Z,52.26
2018-07-11T15:09:39.142Z,56.40
2018-07-11T15:12:42.315Z,57.50
2018-07-11T15:15:45.689Z,59.81
2018-07-11T15:19:51.756Z,58.53
2018-07-11T15:22:55.188Z,60.48
2018-07-11T15:25:58.531Z,60.93
2018-07-11T15:29:01.705Z,59.64
2018-07-11T15:32:05.102Z,59.76
2018-07-11T15:35:09.940Z,60.78
2018-07-11T15:38:14.479Z,59.77
2018-07-11T15:41:17.713Z,62.47
2018-07-11T15:44:20.934Z,60.93
2018-07-11T15:47:24.641Z,63.01
2018-07-11T15:50:27.925Z,63.28
2018-07-11T15:53:31.191Z,65.21
2018-07-11T15:56:35.313Z,66.30
2018-07-11T15:59:47.521Z,67.79
2018-07-11T16:02:51.604Z,71.25
2018-07-11T16:05:55.215Z,73.57
2018-07-11T16:09:04.169Z,73.67
2018-07-11T16:12:07.706Z,78.12
2018-07-11T16:15:11.296Z,76.92
2018-07-11T16:18:15.675Z,80.74
2018-07-11T16:21:18.942Z,78.83
2018-07-11T16:24:22.218Z,78.31
2018-07-11T16:27:25.463Z,78.55
2018-07-11T16:30:28.903Z,80.25
2018-07-11T16:33:32.155Z,80.99
2018-07-11T16:36:37.495Z,82.37
2018-07-11T16:39:41.935Z,83.88
2018-07-11T16:42:45.330Z,84.08
2018-07-11T16:45:49.633Z,83.51
2018-07-11T16:48:53.321Z,82.73
2018-07-11T16:51:56.878Z,84.18
2018-07-11T16:55:03.444Z,84.89
2018-07-11T16:58:08.650Z,85.71
2018-07-11T17:01:12.120Z,86.65
2018-07-11T17:04:15.353Z,86.12
2018-07-11T17:07:19.335Z,84.03
2018-07-11T17:10:23.723Z,85.33
2018-07-11T17:13:26.857Z,87.46
2018-07-11T17:17:05.379Z,87.50
2018-07-11T17:20:10.741Z,85.39
2018-07-11T17:23:13.868Z,84.60
2018-07-11T17:26:18.594Z,85.11
2018-07-11T17:29:25.115Z,87.22
2018-07-11T17:32:30.194Z,87.36
2018-07-11T17:35:33.708Z,86.71
2018-07-11T17:38:37.053Z,87.25
2018-07-11T17:41:40.530Z,88.87
2018-07-11T17:44:48.081Z,87.91
2018-07-11T17:48:00.649Z,87.30
2018-07-11T17:51:08.886Z,86.54
2018-07-11T17:54:12.243Z,86.26
2018-07-11T17:57:23.908Z,86.07
2018-07-11T18:00:38.281Z,84.57
2018-07-11T18:04:06.417Z,83.73
2018-07-11T18:07:13.740Z,84.22
2018-07-11T18:10:30.162Z,86.56
2018-07-11T18:13:37.819Z,88.12
2018-07-11T18:18:55.109Z,87.45
2018-07-11T18:24:19.728Z,88.04
2018-07-11T18:27:37.306Z,88.88
2018-07-11T18:32:55.179Z,88.62
2018-07-11T18:36:08.661Z,86.75
2018-07-11T18:39:20.906Z,87.21
2018-07-11T18:42:46.621Z,87.14
2018-07-11T18:46:00.936Z,88.10
2018-07-11T18:49:24.049Z,89.09
2018-07-11T18:52:31.954Z,89.77
2018-07-11T18:57:43.174Z,89.23
2018-07-11T19:00:58.488Z,90.13
2018-07-11T19:04:14.106Z,90.04
2018-07-11T19:09:30.561Z,90.30
2018-07-11T19:12:45.540Z,90.91
2018-07-11T19:15:53.700Z,91.26
2018-07-11T19:19:05.913Z,91.57
2018-07-11T19:22:17.319Z,92.00
2018-07-11T19:25:30.046Z,91.28
2018-07-11T19:28:44.003Z,90.78
2018-07-11T19:31:57.813Z,91.28
2018-07-11T19:35:08.021Z,90.77
2018-07-11T19:38:34.647Z,90.15
2018-07-11T19:41:47.195Z,90.09
2018-07-11T19:49:06.433Z,91.29
2018-07-11T19:52:21.429Z,91.22
2018-07-11T19:56:33.436Z,90.92
2018-07-11T19:59:36.686Z,90.83
2018-07-11T20:02:39.938Z,90.67
2018-07-11T20:05:53.343Z,90.81
2018-07-11T20:08:48.023Z,90.82
2018-07-11T20:11:51.222Z,89.74
2018-07-11T20:14:54.450Z,89.03
2018-07-11T20:17:57.519Z,89.04
2018-07-11T20:21:00.637Z,89.38
2018-07-11T20:24:03.719Z,89.60
2018-07-11T20:27:06.827Z,89.59
2018-07-11T20:30:40.640Z,89.46
2018-07-11T20:33:43.959Z,90.52
2018-07-11T20:36:47.147Z,90.40
2018-07-11T20:39:50.425Z,91.24
2018-07-11T20:42:53.665Z,91.47
2018-07-11T20:45:56.793Z,91.72
2018-07-11T20:49:03.853Z,91.60
2018-07-11T20:52:07.134Z,92.46
2018-07-11T20:55:10.278Z,92.29
2018-07-11T20:58:24.501Z,92.40
2018-07-11T21:01:38.811Z,92.82
2018-07-11T21:04:53.381Z,93.06
2018-07-11T21:08:39.695Z,93.53
2018-07-11T21:13:58.308Z,94.08
2018-07-11T21:19:09.221Z,93.55
2018-07-11T21:22:12.380Z,93.98
2018-07-11T21:25:15.406Z,94.87
2018-07-11T21:28:18.598Z,94.83
2018-07-11T21:31:21.811Z,94.77
2018-07-11T21:34:24.937Z,94.70
2018-07-11T21:37:28.150Z,94.85
2018-07-11T21:40:31.310Z,94.68
2018-07-11T21:43:34.395Z,95.13
2018-07-11T21:46:37.514Z,94.79
2018-07-11T21:49:40.656Z,95.44
2018-07-11T21:52:43.665Z,96.14
2018-07-11T21:55:46.719Z,96.71
2018-07-11T21:58:49.950Z,97.43
2018-07-11T22:01:53.120Z,96.83
2018-07-11T22:04:56.315Z,96.75
2018-07-11T22:07:59.352Z,96.72
2018-07-11T22:11:02.441Z,97.19
2018-07-11T22:14:05.674Z,97.34
2018-07-11T22:17:20.305Z,96.87
2018-07-11T22:20:22.292Z,97.75
2018-07-11T22:23:24.467Z,97.52
2018-07-11T22:26:26.453Z,97.82
2018-07-11T22:29:28.420Z,97.70
2018-07-11T22:32:30.475Z,98.19
2018-07-11T22:35:32.566Z,98.40
2018-07-11T22:38:34.563Z,98.57
2018-07-11T22:41:36.561Z,98.09
2018-07-11T22:44:38.642Z,97.75
2018-07-11T22:47:40.667Z,98.03
2018-07-11T22:50:42.703Z,97.76
2018-07-11T22:53:44.720Z,97.85
2018-07-11T22:56:46.356Z,97.36
2018-07-11T22:59:49.006Z,97.81
2018-07-11T23:02:50.992Z,97.05
2018-07-11T23:05:53.005Z,96.85
2018-07-11T23:08:55.047Z,96.41
2018-07-11T23:11:57.115Z,97.06
2018-07-11T23:14:58.770Z,96.03
2018-07-11T23:18:00.399Z,96.20
2018-07-11T23:21:02.114Z,96.77
2018-07-11T23:24:04.181Z,96.57
2018-07-11T23:27:06.258Z,96.12
2018-07-11T23:30:08.316Z,96.87
2018-07-11T23:33:10.411Z,96.83
2018-07-11T23:36:12.012Z,96.54
2018-07-11T23:39:14.195Z,96.82
2018-07-11T23:42:15.860Z,97.02
2018-07-11T23:45:18.258Z,96.93
2018-07-11T23:48:20.289Z,97.12
2018-07-11T23:51:22.407Z,96.71
2018-07-11T23:54:24.430Z,96.93
2018-07-11T23:57:26.581Z,96.50
